Decoded Metar for K2V6 ( in ) (IATA:) | Meteo·Mobile Aviation Weather
aviador You're here:

K2V6 Decoded Metar

in
Report Time2018-08-21 19:29:00
UTC Time2018-08-21 19:56:00
Flight Rules vfr VFR
Wind130° at 13 Gusting to 16 kt
W.Rank130° ranks 19
Current wind is above 130° avg. (7.8)
Visibility9999 m
Phenomena:N/A
Clouds:Scattered 035 Hf
Expected CloudBase > 7,200 ft AGL from Temp-Dew spread
CeilingNone
Temp20°C
Dew Point02°C (30% RH)
AAT13.6°C
QNH1025 hPa
Raw Report
K2V6 211929Z AUTO 13013G16KT 10SM SCT035 20/02 A3027 RMK AO2=

Extra information for K2V6:More info

Social comments